Time;durP1;ratioP1;P1;durP2;ratioP2;P2;SDS_P1;SDS_P2;PMS_P1;PMS_P2;Temp;Humidity;BMP_temperature;BMP_pressure;BME280_temperature;BME280_humidity;BME280_pressure;Samples;Min_cycle;Max_cycle;Signal;HPM_P1;HPM_P2
2022/09/12 00:00:19;;;;;;;;;;;24.30;55.30;;;;;;6113407;28;19930;-40
2022/09/12 00:03:21;;;;;;;;;;;24.30;55.40;;;;;;6111460;28;20850;-40
2022/09/12 00:06:24;;;;;;;;;;;24.20;55.30;;;;;;6117725;28;19934;-38
2022/09/12 00:09:28;;;;;;;;;;;24.40;55.40;;;;;;6128099;28;19934;-40
2022/09/12 00:12:31;;;;;;;;;;;24.20;55.20;;;;;;6114668;28;19934;-39
2022/09/12 00:15:37;;;;;;;;;;;24.20;55.20;;;;;;6130841;28;20182;-39
2022/09/12 00:18:38;;;;;;;;;;;24.10;55.20;;;;;;6109077;28;20708;-38
2022/09/12 00:21:40;;;;;;;;;;;24.30;55.30;;;;;;6107385;28;20765;-39
2022/09/12 00:24:42;;;;;;;;;;;24.20;55.30;;;;;;6106638;28;19934;-39
2022/09/12 00:27:44;;;;;;;;;;;24.10;55.30;;;;;;6110045;28;20819;-39
2022/09/12 00:30:46;;;;;;;;;;;24.10;55.20;;;;;;6107879;28;20901;-42
2022/09/12 00:33:47;;;;;;;;;;;24.30;55.40;;;;;;6106381;28;20140;-39
2022/09/12 00:36:49;;;;;;;;;;;24.00;55.30;;;;;;6112691;28;19926;-39
2022/09/12 00:39:50;;;;;;;;;;;24.00;55.20;;;;;;6111860;28;20293;-40
2022/09/12 00:42:52;;;;;;;;;;;24.10;55.30;;;;;;6111912;28;19930;-43
2022/09/12 00:45:53;;;;;;;;;;;24.30;55.40;;;;;;6110142;28;20001;-39
2022/09/12 00:48:57;;;;;;;;;;;23.90;55.20;;;;;;6106168;28;20857;-38
2022/09/12 00:52:02;;;;;;;;;;;24.30;55.40;;;;;;6108667;28;20032;-39
2022/09/12 00:55:06;;;;;;;;;;;24.20;55.30;;;;;;6107832;28;19988;-39
2022/09/12 00:58:11;;;;;;;;;;;23.90;55.20;;;;;;6107767;28;19937;-39
2022/09/12 01:01:12;;;;;;;;;;;24.10;55.30;;;;;;6108958;28;19934;-39
2022/09/12 01:04:14;;;;;;;;;;;24.30;55.40;;;;;;6113156;28;19991;-41
2022/09/12 01:07:15;;;;;;;;;;;24.10;55.30;;;;;;6113669;28;20648;-39
2022/09/12 01:10:17;;;;;;;;;;;24.30;55.40;;;;;;6110102;28;19941;-39
2022/09/12 01:13:19;;;;;;;;;;;24.40;55.40;;;;;;6103472;28;20057;-41
2022/09/12 01:16:20;;;;;;;;;;;24.30;55.40;;;;;;6106066;28;19973;-40
2022/09/12 01:19:32;;;;;;;;;;;23.80;55.10;;;;;;6104345;28;20664;-38
2022/09/12 01:22:46;;;;;;;;;;;24.00;55.20;;;;;;6105503;28;20115;-39
2022/09/12 01:25:58;;;;;;;;;;;24.00;55.30;;;;;;6096646;28;20220;-39
2022/09/12 01:29:09;;;;;;;;;;;24.30;55.50;;;;;;6103942;28;20241;-39
2022/09/12 01:32:17;;;;;;;;;;;23.90;55.20;;;;;;6103320;28;19934;-39
2022/09/12 01:35:22;;;;;;;;;;;23.80;55.10;;;;;;6102471;28;21083;-39
2022/09/12 01:38:25;;;;;;;;;;;24.00;55.30;;;;;;6100484;28;19965;-41
2022/09/12 01:41:37;;;;;;;;;;;24.20;55.40;;;;;;6100716;28;20087;-40
2022/09/12 01:44:43;;;;;;;;;;;24.30;55.40;;;;;;6097676;28;20532;-39
2022/09/12 01:47:48;;;;;;;;;;;24.10;55.30;;;;;;6099975;28;20442;-40
2022/09/12 01:50:52;;;;;;;;;;;23.80;55.10;;;;;;6097927;28;20699;-39
2022/09/12 01:53:56;;;;;;;;;;;24.40;55.50;;;;;;6099054;28;19930;-42
2022/09/12 01:57:00;;;;;;;;;;;24.10;55.30;;;;;;6097381;28;20173;-39
2022/09/12 02:00:04;;;;;;;;;;;24.30;55.40;;;;;;6112185;28;20156;-39
2022/09/12 02:03:18;;;;;;;;;;;24.00;55.30;;;;;;6094937;28;20227;-39
2022/09/12 02:06:24;;;;;;;;;;;24.00;55.30;;;;;;6095684;28;20290;-39
2022/09/12 02:09:28;;;;;;;;;;;24.00;55.80;;;;;;6097367;28;20186;-40
2022/09/12 02:12:34;;;;;;;;;;;23.90;55.20;;;;;;6092858;28;20485;-39
2022/09/12 02:15:37;;;;;;;;;;;24.00;55.20;;;;;;6101741;28;20336;-38
2022/09/12 02:18:43;;;;;;;;;;;23.80;55.10;;;;;;6101105;28;20021;-39
2022/09/12 02:21:47;;;;;;;;;;;23.90;55.20;;;;;;6103349;28;20737;-40
2022/09/12 02:24:49;;;;;;;;;;;24.00;55.30;;;;;;6100463;28;20238;-42
2022/09/12 02:27:53;;;;;;;;;;;23.90;55.20;;;;;;6103905;28;20245;-40
2022/09/12 02:30:58;;;;;;;;;;;24.10;55.40;;;;;;6103216;28;19989;-41
2022/09/12 02:34:08;;;;;;;;;;;23.80;55.10;;;;;;6102881;28;19953;-38
2022/09/12 02:37:15;;;;;;;;;;;24.10;55.30;;;;;;6107679;28;19978;-39
2022/09/12 02:40:16;;;;;;;;;;;23.90;55.30;;;;;;6104959;28;20137;-39
2022/09/12 02:43:18;;;;;;;;;;;23.90;55.30;;;;;;6103335;28;20569;-39
2022/09/12 02:46:21;;;;;;;;;;;24.20;55.40;;;;;;6103618;28;19933;-39
2022/09/12 02:49:23;;;;;;;;;;;23.90;55.20;;;;;;6104408;28;20032;-40
2022/09/12 02:52:24;;;;;;;;;;;23.90;55.30;;;;;;6101912;28;19972;-40
2022/09/12 02:55:26;;;;;;;;;;;24.00;55.30;;;;;;6102500;28;20033;-39
2022/09/12 02:58:29;;;;;;;;;;;24.20;55.40;;;;;;6103259;28;20458;-39
2022/09/12 03:01:39;;;;;;;;;;;24.00;55.30;;;;;;6100671;28;20219;-40
2022/09/12 03:04:50;;;;;;;;;;;23.90;55.30;;;;;;6103833;28;19940;-39
2022/09/12 03:08:00;;;;;;;;;;;23.80;55.30;;;;;;6107853;28;20009;-39
2022/09/12 03:11:08;;;;;;;;;;;23.80;55.30;;;;;;6115004;28;21017;-39
2022/09/12 03:14:18;;;;;;;;;;;23.60;55.10;;;;;;6109894;28;20250;-39
2022/09/12 03:17:24;;;;;;;;;;;23.90;55.30;;;;;;6099810;28;19941;-42
2022/09/12 03:20:32;;;;;;;;;;;24.20;55.70;;;;;;6099103;28;20269;-40
2022/09/12 03:23:36;;;;;;;;;;;23.80;55.20;;;;;;6098058;28;19969;-41
2022/09/12 03:26:41;;;;;;;;;;;23.90;55.20;;;;;;6103261;28;20433;-41
2022/09/12 03:29:43;;;;;;;;;;;24.00;55.20;;;;;;6101848;28;20220;-41
2022/09/12 03:32:46;;;;;;;;;;;24.00;55.30;;;;;;6100931;28;20104;-42
2022/09/12 03:35:51;;;;;;;;;;;24.00;55.20;;;;;;6098403;28;20089;-40
2022/09/12 03:38:52;;;;;;;;;;;24.10;55.40;;;;;;6105292;28;20004;-40
2022/09/12 03:41:54;;;;;;;;;;;23.70;55.20;;;;;;6105509;28;20240;-40
2022/09/12 03:44:55;;;;;;;;;;;24.00;55.30;;;;;;6099001;28;20139;-41
2022/09/12 03:47:57;;;;;;;;;;;23.80;55.80;;;;;;6103028;28;19938;-42
2022/09/12 03:51:00;;;;;;;;;;;23.90;55.30;;;;;;6099378;28;19969;-43
2022/09/12 03:54:01;;;;;;;;;;;23.70;55.20;;;;;;6098465;28;19930;-42
2022/09/12 03:57:02;;;;;;;;;;;24.10;55.40;;;;;;6101759;28;20001;-44
2022/09/12 04:00:04;;;;;;;;;;;24.00;55.40;;;;;;6098072;28;20039;-43
2022/09/12 04:03:13;;;;;;;;;;;23.80;55.30;;;;;;6095796;28;20724;-42
2022/09/12 04:06:19;;;;;;;;;;;23.80;55.30;;;;;;6101152;28;19930;-43
2022/09/12 04:09:20;;;;;;;;;;;24.00;55.40;;;;;;6098631;28;20488;-42
2022/09/12 04:12:22;;;;;;;;;;;23.70;55.30;;;;;;6100412;28;20134;-43
2022/09/12 04:15:26;;;;;;;;;;;24.00;55.50;;;;;;6097421;28;20524;-40
2022/09/12 04:18:28;;;;;;;;;;;24.20;55.40;;;;;;6098070;28;20668;-41
2022/09/12 04:21:30;;;;;;;;;;;24.00;55.40;;;;;;6095988;28;20179;-41
2022/09/12 04:24:32;;;;;;;;;;;23.90;55.30;;;;;;6096307;28;19930;-43
2022/09/12 04:27:33;;;;;;;;;;;23.90;55.40;;;;;;6097906;28;20060;-42
2022/09/12 04:30:35;;;;;;;;;;;23.60;55.20;;;;;;6094600;28;20013;-43
2022/09/12 04:33:36;;;;;;;;;;;23.80;55.30;;;;;;6099074;28;20084;-40
2022/09/12 04:36:41;;;;;;;;;;;24.00;55.40;;;;;;6096610;28;20210;-40
2022/09/12 04:39:42;;;;;;;;;;;23.70;55.30;;;;;;6095819;28;20256;-40
2022/09/12 04:42:44;;;;;;;;;;;23.90;55.50;;;;;;6094878;28;19989;-41
2022/09/12 04:45:45;;;;;;;;;;;23.70;55.30;;;;;;6095810;28;19938;-41
2022/09/12 04:48:47;;;;;;;;;;;23.90;55.40;;;;;;6095979;28;20157;-42
2022/09/12 04:51:51;;;;;;;;;;;24.20;55.60;;;;;;6094309;28;20036;-40
2022/09/12 04:54:53;;;;;;;;;;;23.90;55.50;;;;;;6090411;28;20837;-41
2022/09/12 04:57:54;;;;;;;;;;;24.00;55.50;;;;;;6093960;28;20146;-42
2022/09/12 05:00:55;;;;;;;;;;;23.60;55.30;;;;;;6104235;28;20041;-41
2022/09/12 05:03:58;;;;;;;;;;;23.70;55.30;;;;;;6099917;28;19934;-43
2022/09/12 05:07:00;;;;;;;;;;;23.80;55.40;;;;;;6104542;28;20008;-41
2022/09/12 05:10:02;;;;;;;;;;;24.00;55.50;;;;;;6104586;28;19930;-43
2022/09/12 05:13:04;;;;;;;;;;;23.60;55.30;;;;;;6100965;28;20041;-41
2022/09/12 05:16:06;;;;;;;;;;;24.00;55.60;;;;;;6100640;28;19931;-41
2022/09/12 05:19:09;;;;;;;;;;;23.60;55.30;;;;;;6103251;28;19981;-44
2022/09/12 05:22:11;;;;;;;;;;;23.90;55.40;;;;;;6103959;28;20072;-41
2022/09/12 05:25:13;;;;;;;;;;;24.00;55.50;;;;;;6100234;28;19934;-42
2022/09/12 05:28:14;;;;;;;;;;;24.00;55.50;;;;;;6092282;28;19930;-41
2022/09/12 05:31:16;;;;;;;;;;;23.60;55.40;;;;;;6090864;28;19934;-43
2022/09/12 05:34:18;;;;;;;;;;;23.60;55.30;;;;;;6086740;28;20489;-41
2022/09/12 05:37:20;;;;;;;;;;;23.50;55.30;;;;;;6093677;28;20318;-42
2022/09/12 05:40:21;;;;;;;;;;;24.00;55.50;;;;;;6085655;28;20023;-40
2022/09/12 05:43:23;;;;;;;;;;;23.90;55.50;;;;;;6079960;28;19934;-43
2022/09/12 05:46:25;;;;;;;;;;;23.70;55.50;;;;;;6106856;28;19935;-40
2022/09/12 05:49:26;;;;;;;;;;;23.70;55.40;;;;;;6098953;28;20827;-42
2022/09/12 05:52:29;;;;;;;;;;;23.70;55.40;;;;;;6099958;28;20033;-41
2022/09/12 05:55:32;;;;;;;;;;;23.90;56.10;;;;;;6097734;28;19942;-41
2022/09/12 05:58:33;;;;;;;;;;;23.60;55.40;;;;;;6087254;28;20800;-40
2022/09/12 06:01:34;;;;;;;;;;;24.00;55.60;;;;;;6086152;28;20049;-41
2022/09/12 06:04:40;;;;;;;;;;;23.40;55.30;;;;;;6087936;28;19934;-42
2022/09/12 06:07:42;;;;;;;;;;;23.80;55.50;;;;;;6087555;28;20222;-40
2022/09/12 06:10:43;;;;;;;;;;;23.70;55.40;;;;;;6086746;28;19934;-42
2022/09/12 06:13:44;;;;;;;;;;;23.70;55.50;;;;;;6081794;28;19934;-43
2022/09/12 06:16:47;;;;;;;;;;;23.70;55.50;;;;;;6080335;28;20048;-45
2022/09/12 06:19:49;;;;;;;;;;;24.00;55.70;;;;;;6080635;28;19934;-44
2022/09/12 06:22:52;;;;;;;;;;;23.80;55.50;;;;;;6076124;28;20052;-41
2022/09/12 06:25:54;;;;;;;;;;;23.80;55.50;;;;;;6060825;28;19934;-41
2022/09/12 06:28:56;;;;;;;;;;;23.80;55.50;;;;;;6067803;28;19977;-42
2022/09/12 06:31:57;;;;;;;;;;;23.90;55.50;;;;;;6062587;28;20016;-40
2022/09/12 06:34:59;;;;;;;;;;;23.80;55.50;;;;;;6051144;28;19938;-41
2022/09/12 06:38:01;;;;;;;;;;;23.80;55.50;;;;;;6054266;28;20124;-41
2022/09/12 06:41:03;;;;;;;;;;;23.80;55.40;;;;;;6052242;28;20810;-41
2022/09/12 06:44:05;;;;;;;;;;;23.90;55.50;;;;;;6049678;28;21006;-42
2022/09/12 06:47:07;;;;;;;;;;;23.80;55.40;;;;;;6032137;28;20824;-41
2022/09/12 06:50:08;;;;;;;;;;;23.80;55.50;;;;;;5999739;28;19941;-44
2022/09/12 06:53:10;;;;;;;;;;;23.80;55.30;;;;;;5982174;28;20890;-43
2022/09/12 06:56:13;;;;;;;;;;;23.80;55.30;;;;;;5958358;28;19965;-42
2022/09/12 06:59:14;;;;;;;;;;;23.60;55.30;;;;;;5997596;28;19934;-43
2022/09/12 07:02:16;;;;;;;;;;;23.80;55.30;;;;;;5965111;28;19934;-41
2022/09/12 07:05:17;;;;;;;;;;;23.80;55.70;;;;;;5890057;28;19958;-41
2022/09/12 07:08:19;;;;;;;;;;;23.90;55.30;;;;;;5825293;28;19941;-40
2022/09/12 07:11:22;;;;;;;;;;;23.80;55.20;;;;;;5896742;28;21299;-38
2022/09/12 07:14:24;;;;;;;;;;;23.80;55.20;;;;;;5897795;28;21575;-40
2022/09/12 07:17:26;;;;;;;;;;;24.10;55.40;;;;;;5865282;28;19941;-41
2022/09/12 07:20:28;;;;;;;;;;;23.90;55.30;;;;;;5808062;28;19977;-44
2022/09/12 07:23:30;;;;;;;;;;;23.30;54.90;;;;;;5832701;28;19941;-40
2022/09/12 07:26:31;;;;;;;;;;;24.00;55.20;;;;;;5831540;28;28995;-43
2022/09/12 07:29:33;;;;;;;;;;;24.10;55.20;;;;;;5846933;28;25894;-43
2022/09/12 07:32:38;;;;;;;;;;;23.40;54.70;;;;;;5839450;28;21208;-40
2022/09/12 07:35:39;;;;;;;;;;;23.90;54.90;;;;;;5842836;28;23057;-42
2022/09/12 07:38:42;;;;;;;;;;;24.20;55.00;;;;;;5821679;28;28409;-44
2022/09/12 07:41:47;;;;;;;;;;;24.20;54.90;;;;;;5803359;28;30312;-45
2022/09/12 07:44:51;;;;;;;;;;;24.30;55.00;;;;;;5799991;28;19934;-41
2022/09/12 07:47:52;;;;;;;;;;;24.10;54.70;;;;;;5820029;28;22494;-41
2022/09/12 07:50:58;;;;;;;;;;;24.20;54.70;;;;;;5803000;28;20945;-41
2022/09/12 07:54:01;;;;;;;;;;;24.50;54.80;;;;;;5784368;28;27853;-40
2022/09/12 07:57:03;;;;;;;;;;;24.50;54.80;;;;;;5823155;28;19938;-43
2022/09/12 08:00:06;;;;;;;;;;;24.50;54.80;;;;;;5801327;28;23187;-43
2022/09/12 08:03:13;;;;;;;;;;;24.50;54.60;;;;;;5803896;28;19934;-49
2022/09/12 08:06:15;;;;;;;;;;;24.50;54.60;;;;;;5799783;28;19933;-45
2022/09/12 08:09:17;;;;;;;;;;;24.40;55.00;;;;;;5767932;28;22093;-45
2022/09/12 08:12:19;;;;;;;;;;;24.30;54.30;;;;;;5791846;28;22951;-47
2022/09/12 08:15:21;;;;;;;;;;;24.20;54.20;;;;;;5772191;28;19969;-48
2022/09/12 08:18:22;;;;;;;;;;;24.60;54.40;;;;;;5778119;28;19941;-53
2022/09/12 08:21:25;;;;;;;;;;;24.60;54.30;;;;;;5803682;28;24190;-49
2022/09/12 08:24:28;;;;;;;;;;;24.50;54.10;;;;;;5830108;28;20060;-46
2022/09/12 08:27:29;;;;;;;;;;;24.70;54.10;;;;;;5814973;28;24092;-42
2022/09/12 08:30:31;;;;;;;;;;;24.90;54.00;;;;;;5760406;28;23862;-49
2022/09/12 08:33:34;;;;;;;;;;;24.70;54.20;;;;;;5782983;28;29199;-45
2022/09/12 08:36:35;;;;;;;;;;;24.70;54.10;;;;;;5801307;28;30517;-44
2022/09/12 08:39:37;;;;;;;;;;;24.70;54.00;;;;;;5838752;28;21000;-43
2022/09/12 08:42:46;;;;;;;;;;;24.70;54.00;;;;;;5826221;28;19934;-42
2022/09/12 08:45:49;;;;;;;;;;;24.70;53.90;;;;;;5798221;28;19934;-45
2022/09/12 08:48:51;;;;;;;;;;;24.70;54.00;;;;;;5799403;28;19941;-44
2022/09/12 08:51:54;;;;;;;;;;;24.80;54.00;;;;;;5820086;28;22577;-42
2022/09/12 08:54:56;;;;;;;;;;;24.90;54.00;;;;;;5817736;28;22101;-41
2022/09/12 08:57:59;;;;;;;;;;;24.90;54.00;;;;;;5778107;28;29604;-43
2022/09/12 09:01:05;;;;;;;;;;;25.00;54.00;;;;;;5765254;28;29896;-41
2022/09/12 09:04:16;;;;;;;;;;;24.80;53.90;;;;;;5739412;28;26156;-40
2022/09/12 09:07:24;;;;;;;;;;;24.70;53.90;;;;;;5742405;28;27553;-41
2022/09/12 09:10:31;;;;;;;;;;;25.30;54.30;;;;;;5745084;28;22344;-40
2022/09/12 09:16:58;;;;;;;;;;;24.90;54.20;;;;;;5789748;28;30240;-42
2022/09/12 09:20:03;;;;;;;;;;;24.90;54.20;;;;;;5806080;28;28056;-42
2022/09/12 09:23:07;;;;;;;;;;;24.90;54.10;;;;;;5816104;28;20110;-43
2022/09/12 09:26:13;;;;;;;;;;;25.00;54.20;;;;;;5782056;28;19934;-43
2022/09/12 09:29:16;;;;;;;;;;;25.60;54.30;;;;;;5781078;28;19937;-44
2022/09/12 09:32:24;;;;;;;;;;;25.00;54.10;;;;;;5767292;28;29871;-43
2022/09/12 09:35:31;;;;;;;;;;;25.10;54.00;;;;;;5817035;28;20593;-44
2022/09/12 09:38:44;;;;;;;;;;;25.00;53.90;;;;;;5797323;28;19942;-41
2022/09/12 09:41:51;;;;;;;;;;;25.10;54.10;;;;;;5782357;28;19934;-42
2022/09/12 09:44:58;;;;;;;;;;;24.80;53.90;;;;;;5798470;28;19934;-44
2022/09/12 09:48:12;;;;;;;;;;;25.30;54.20;;;;;;5843630;28;21208;-47
2022/09/12 09:51:23;;;;;;;;;;;25.10;54.00;;;;;;5852201;28;20189;-43
2022/09/12 09:54:27;;;;;;;;;;;24.90;53.90;;;;;;5820467;28;23328;-46
2022/09/12 09:57:39;;;;;;;;;;;25.30;54.30;;;;;;5845647;28;24634;-43
2022/09/12 10:00:41;;;;;;;;;;;25.10;54.10;;;;;;5823744;28;19938;-44
2022/09/12 10:03:47;;;;;;;;;;;24.90;53.90;;;;;;5845032;28;27463;-45
2022/09/12 10:06:50;;;;;;;;;;;25.30;54.10;;;;;;5821757;28;19941;-43
2022/09/12 10:10:04;;;;;;;;;;;25.10;53.90;;;;;;5835357;28;19942;-43
2022/09/12 10:13:07;;;;;;;;;;;25.10;54.00;;;;;;5841616;28;19934;-43
2022/09/12 10:16:18;;;;;;;;;;;25.20;54.00;;;;;;5905334;28;19941;-46
2022/09/12 10:19:23;;;;;;;;;;;25.20;54.00;;;;;;5920403;28;21244;-44
2022/09/12 10:22:27;;;;;;;;;;;25.40;54.20;;;;;;5945034;28;19952;-45
2022/09/12 10:25:29;;;;;;;;;;;25.20;54.10;;;;;;5923898;28;19934;-47
2022/09/12 10:28:33;;;;;;;;;;;25.10;54.00;;;;;;5943529;28;19942;-49
2022/09/12 10:31:40;;;;;;;;;;;25.40;54.20;;;;;;5940568;28;19934;-45
2022/09/12 10:34:43;;;;;;;;;;;25.30;54.10;;;;;;5951139;28;19935;-45
2022/09/12 10:37:51;;;;;;;;;;;25.20;54.20;;;;;;5976896;28;20634;-48
2022/09/12 10:40:55;;;;;;;;;;;25.10;54.10;;;;;;5981521;28;20569;-43
2022/09/12 10:44:05;;;;;;;;;;;25.20;54.20;;;;;;5992226;28;19934;-44
2022/09/12 10:47:16;;;;;;;;;;;25.10;54.10;;;;;;5980437;28;20148;-48
2022/09/12 10:50:19;;;;;;;;;;;25.20;54.20;;;;;;5995042;28;21306;-44
2022/09/12 10:53:24;;;;;;;;;;;25.10;54.10;;;;;;5999146;28;19934;-46
2022/09/12 10:56:27;;;;;;;;;;;25.20;54.20;;;;;;5972324;28;21414;-44
2022/09/12 10:59:33;;;;;;;;;;;25.30;54.20;;;;;;5996646;28;20012;-49
2022/09/12 11:02:40;;;;;;;;;;;25.50;54.30;;;;;;5994289;28;20048;-46
2022/09/12 11:05:50;;;;;;;;;;;25.50;54.30;;;;;;5971721;28;19940;-48
2022/09/12 11:09:00;;;;;;;;;;;25.20;54.00;;;;;;5993025;28;21577;-45
2022/09/12 11:12:03;;;;;;;;;;;25.30;54.10;;;;;;6006303;28;19938;-47
2022/09/12 11:15:11;;;;;;;;;;;25.30;54.10;;;;;;5988623;28;21282;-45
2022/09/12 11:18:24;;;;;;;;;;;25.30;54.10;;;;;;6015598;28;19964;-46
2022/09/12 11:21:32;;;;;;;;;;;25.20;54.00;;;;;;6014527;28;21112;-48
2022/09/12 11:24:41;;;;;;;;;;;25.30;54.00;;;;;;6042562;28;21076;-45
2022/09/12 11:41:27;;;;;;;;;;;25.60;53.80;;;;;;6042071;28;20525;-44
2022/09/12 11:44:34;;;;;;;;;;;25.40;53.60;;;;;;5891583;28;20920;-42
2022/09/12 11:47:42;;;;;;;;;;;25.60;53.80;;;;;;5871661;28;20252;-44
2022/09/12 11:50:43;;;;;;;;;;;25.70;53.80;;;;;;5900589;28;20222;-44
2022/09/12 11:53:48;;;;;;;;;;;25.60;53.70;;;;;;5851010;28;29182;-42
2022/09/12 11:56:52;;;;;;;;;;;25.70;53.70;;;;;;5861751;28;25665;-45
2022/09/12 11:59:57;;;;;;;;;;;25.80;53.70;;;;;;5750281;28;19934;-47
2022/09/12 12:03:03;;;;;;;;;;;25.80;53.70;;;;;;5739699;28;20080;-43
2022/09/12 12:06:06;;;;;;;;;;;25.80;53.60;;;;;;5762898;28;21186;-43
2022/09/12 12:09:10;;;;;;;;;;;26.10;53.80;;;;;;5788688;28;26395;-45
2022/09/12 12:12:15;;;;;;;;;;;25.80;53.60;;;;;;5829517;28;19934;-50
2022/09/12 12:15:17;;;;;;;;;;;25.90;53.60;;;;;;5854371;28;20072;-46
2022/09/12 12:18:21;;;;;;;;;;;25.80;53.50;;;;;;5869639;28;20961;-41
2022/09/12 12:21:35;;;;;;;;;;;25.80;53.50;;;;;;5847320;28;21363;-42
2022/09/12 12:24:52;;;;;;;;;;;25.80;53.50;;;;;;5838003;28;19934;-44
2022/09/12 12:27:55;;;;;;;;;;;25.90;53.60;;;;;;5832946;28;22148;-43
2022/09/12 12:31:02;;;;;;;;;;;25.80;53.60;;;;;;5843154;28;19940;-45
2022/09/12 12:34:18;;;;;;;;;;;25.90;54.20;;;;;;5851966;28;20072;-47
2022/09/12 12:37:35;;;;;;;;;;;25.80;53.70;;;;;;5844879;28;23038;-44
2022/09/12 12:40:36;;;;;;;;;;;26.00;53.90;;;;;;5844639;28;20065;-45
2022/09/12 12:43:38;;;;;;;;;;;25.80;53.90;;;;;;5823247;28;20062;-44
2022/09/12 12:46:39;;;;;;;;;;;25.80;53.80;;;;;;5849282;28;20057;-41
2022/09/12 12:49:41;;;;;;;;;;;25.80;53.90;;;;;;5863072;28;19935;-42
2022/09/12 12:52:46;;;;;;;;;;;25.80;53.80;;;;;;5824424;28;20509;-41
2022/09/12 12:55:49;;;;;;;;;;;25.80;53.70;;;;;;5790770;28;24257;-41
2022/09/12 12:58:56;;;;;;;;;;;25.80;53.70;;;;;;5777405;28;20041;-43
2022/09/12 13:01:59;;;;;;;;;;;25.80;53.80;;;;;;5753264;28;20065;-46
2022/09/12 13:05:02;;;;;;;;;;;25.80;53.80;;;;;;5762209;28;20093;-49
2022/09/12 13:08:06;;;;;;;;;;;25.60;53.70;;;;;;5797214;28;21592;-41
2022/09/12 13:11:10;;;;;;;;;;;25.90;53.80;;;;;;5816047;28;19934;-45
2022/09/12 13:14:27;;;;;;;;;;;25.80;53.70;;;;;;5793671;28;19953;-40
2022/09/12 13:17:32;;;;;;;;;;;26.00;54.00;;;;;;5774749;28;21005;-41
2022/09/12 13:20:37;;;;;;;;;;;25.70;53.80;;;;;;5761895;28;19992;-42
2022/09/12 13:23:38;;;;;;;;;;;25.80;53.90;;;;;;5810835;28;19941;-42
2022/09/12 13:26:40;;;;;;;;;;;25.50;53.70;;;;;;5811798;28;20421;-42
2022/09/12 13:29:42;;;;;;;;;;;25.70;53.90;;;;;;5783473;28;19934;-43
2022/09/12 13:32:44;;;;;;;;;;;25.60;53.90;;;;;;5774833;28;19934;-40
2022/09/12 13:35:46;;;;;;;;;;;;;;;;;;5753963;28;26750;-43
2022/09/12 13:38:47;;;;;;;;;;;;;;;;;;5780822;28;25342;-42
2022/09/12 13:41:49;;;;;;;;;;;;;;;;;;5801558;28;29925;-40
2022/09/12 13:44:51;;;;;;;;;;;;;;;;;;5755698;28;29882;-41
2022/09/12 13:47:53;;;;;;;;;;;;;;;;;;5742341;28;29891;-40
2022/09/12 13:50:59;;;;;;;;;;;;;;;;;;5766855;28;20305;-42
2022/09/12 13:54:01;;;;;;;;;;;;;;;;;;5817930;28;19938;-41
2022/09/12 13:57:03;;;;;;;;;;;;;;;;;;5724157;28;32626;-41
2022/09/12 14:00:04;;;;;;;;;;;;;;;;;;5752239;28;28743;-42
2022/09/12 14:06:21;;;;;;;;;;;;;;;;;;5768042;28;19934;-41
2022/09/12 14:09:23;;;;;;;;;;;;;;;;;;5795146;28;20037;-40
2022/09/12 14:12:28;;;;;;;;;;;;;;;;;;5811324;28;19934;-41
2022/09/12 14:15:30;;;;;;;;;;;;;;;;;;5729077;28;22088;-41
2022/09/12 14:18:33;;;;;;;;;;;;;;;;;;5783573;28;27863;-41
2022/09/12 14:21:35;;;;;;;;;;;;;;;;;;5824577;28;20667;-41
2022/09/12 14:24:38;;;;;;;;;;;;;;;;;;5794078;28;19941;-41
2022/09/12 14:27:41;;;;;;;;;;;;;;;;;;5817790;28;20346;-40
2022/09/12 14:30:43;;;;;;;;;;;;;;;;;;5824262;28;21260;-40
2022/09/12 14:33:45;;;;;;;;;;;;;;;;;;5800047;28;19950;-42
2022/09/12 14:36:47;;;;;;;;;;;;;;;;;;5807525;28;22605;-41
2022/09/12 14:39:49;;;;;;;;;;;;;;;;;;5813962;28;19940;-40
2022/09/12 14:42:51;;;;;;;;;;;;;;;;;;5815602;28;21958;-42
2022/09/12 14:45:54;;;;;;;;;;;;;;;;;;5797061;28;22989;-40
2022/09/12 14:48:56;;;;;;;;;;;;;;;;;;5810420;28;20906;-45
2022/09/12 14:52:01;;;;;;;;;;;;;;;;;;5833180;28;33239;-42
2022/09/12 14:55:04;;;;;;;;;;;;;;;;;;5798455;28;19938;-41
2022/09/12 14:58:06;;;;;;;;;;;;;;;;;;5789822;28;22229;-41
2022/09/12 15:01:08;;;;;;;;;;;;;;;;;;5761384;28;20456;-40
2022/09/12 15:04:09;;;;;;;;;;;;;;;;;;5743957;28;20019;-42
2022/09/12 15:07:11;;;;;;;;;;;;;;;;;;5777244;28;19934;-40
2022/09/12 15:10:13;;;;;;;;;;;;;;;;;;5808472;28;21876;-41
2022/09/12 15:13:15;;;;;;;;;;;;;;;;;;5816429;28;21880;-41
2022/09/12 15:16:17;;;;;;;;;;;;;;;;;;5802343;28;19934;-41
2022/09/12 15:19:18;;;;;;;;;;;;;;;;;;5822525;28;31173;-42
2022/09/12 15:22:24;;;;;;;;;;;;;;;;;;5819698;28;19940;-40
2022/09/12 15:25:26;;;;;;;;;;;;;;;;;;5813119;28;19934;-41
2022/09/12 15:28:28;;;;;;;;;;;;;;;;;;5814311;28;19984;-40
2022/09/12 15:31:30;;;;;;;;;;;;;;;;;;5801373;28;19934;-41
2022/09/12 15:34:31;;;;;;;;;;;;;;;;;;5800901;28;20848;-41
2022/09/12 15:37:33;;;;;;;;;;;;;;;;;;5793949;28;23300;-44
2022/09/12 15:40:35;;;;;;;;;;;;;;;;;;5803293;28;28847;-40
2022/09/12 15:43:37;;;;;;;;;;;;;;;;;;5862368;28;19934;-40
2022/09/12 15:46:38;;;;;;;;;;;;;;;;;;5841395;28;19941;-40
2022/09/12 15:49:40;;;;;;;;;;;;;;;;;;5885331;28;19934;-40
2022/09/12 15:52:42;;;;;;;;;;;;;;;;;;5884636;28;21243;-40
2022/09/12 15:55:43;;;;;;;;;;;;;;;;;;5900856;28;19934;-40
2022/09/12 15:58:45;;;;;;;;;;;;;;;;;;5893356;28;19934;-40
2022/09/12 16:01:59;;;;;;;;;;;;;;;;;;5863415;28;20018;-39
2022/09/12 16:05:01;;;;;;;;;;;;;;;;;;5900230;28;22362;-40
2022/09/12 16:08:03;;;;;;;;;;;;;;;;;;5958496;28;21425;-40
2022/09/12 16:11:05;;;;;;;;;;;;;;;;;;5980625;28;19933;-40
2022/09/12 16:14:06;;;;;;;;;;;;;;;;;;5979319;28;19938;-40
2022/09/12 16:17:08;;;;;;;;;;;;;;;;;;5985643;28;19934;-40
2022/09/12 16:20:10;;;;;;;;;;;;;;;;;;6008709;28;19934;-40
2022/09/12 16:23:12;;;;;;;;;;;;;;;;;;6005389;28;20160;-41
2022/09/12 16:26:13;;;;;;;;;;;;;;;;;;6010673;28;19934;-40
2022/09/12 16:29:15;;;;;;;;;;;;;;;;;;6009953;28;19941;-40
2022/09/12 16:32:17;;;;;;;;;;;;;;;;;;6001648;28;20928;-40
2022/09/12 16:35:18;;;;;;;;;;;;;;;;;;6018710;28;19984;-40
2022/09/12 16:38:20;;;;;;;;;;;25.60;83.50;;;;;;6010611;28;20020;-41
2022/09/12 16:41:23;;;;;;;;;;;25.50;83.30;;;;;;6010939;28;21701;-40
2022/09/12 16:44:25;;;;;;;;;;;26.10;82.90;;;;;;6030095;28;21211;-39
2022/09/12 16:47:26;;;;;;;;;;;25.80;82.90;;;;;;6044602;28;19980;-40
2022/09/12 16:50:29;;;;;;;;;;;25.60;81.50;;;;;;6045985;28;19940;-39
2022/09/12 16:53:34;;;;;;;;;;;25.70;81.20;;;;;;6043435;28;20057;-39
2022/09/12 16:56:36;;;;;;;;;;;25.90;82.00;;;;;;6048301;28;20929;-39
2022/09/12 16:59:37;;;;;;;;;;;25.70;81.60;;;;;;6059296;28;20025;-41
2022/09/12 17:02:38;;;;;;;;;;;25.70;81.80;;;;;;6048977;28;19956;-39
2022/09/12 17:05:39;;;;;;;;;;;25.40;77.30;;;;;;6058390;28;19934;-39
2022/09/12 17:08:43;;;;;;;;;;;25.50;77.80;;;;;;6075822;28;20751;-39
2022/09/12 17:11:46;;;;;;;;;;;25.80;75.00;;;;;;6095118;28;21422;-41
2022/09/12 17:14:47;;;;;;;;;;;25.50;73.80;;;;;;6074636;28;20898;-43
2022/09/12 17:17:50;;;;;;;;;;;25.70;74.40;;;;;;6083092;28;19973;-42
2022/09/12 17:20:52;;;;;;;;;;;25.50;73.40;;;;;;6082453;28;21048;-40
2022/09/12 17:23:54;;;;;;;;;;;25.60;73.60;;;;;;6077417;28;20002;-40
2022/09/12 17:26:56;;;;;;;;;;;25.50;73.70;;;;;;6086606;28;20016;-39
2022/09/12 17:29:57;;;;;;;;;;;25.60;73.90;;;;;;6078040;28;20324;-40
2022/09/12 17:32:59;;;;;;;;;;;25.30;73.60;;;;;;6067343;28;19938;-39
2022/09/12 17:36:01;;;;;;;;;;;25.50;73.40;;;;;;6070569;28;20731;-41
2022/09/12 17:39:03;;;;;;;;;;;25.50;73.80;;;;;;6078658;28;19934;-40
2022/09/12 17:42:06;;;;;;;;;;;25.50;72.50;;;;;;6076595;28;19962;-40
2022/09/12 17:45:08;;;;;;;;;;;25.30;73.60;;;;;;6076591;28;20148;-40
2022/09/12 17:48:10;;;;;;;;;;;25.60;73.50;;;;;;6079824;28;20452;-40
2022/09/12 17:51:13;;;;;;;;;;;25.30;73.00;;;;;;6080805;28;20143;-40
2022/09/12 17:54:16;;;;;;;;;;;25.50;73.40;;;;;;6074924;28;19942;-40
2022/09/12 17:57:17;;;;;;;;;;;25.30;73.30;;;;;;6079759;28;20266;-40
2022/09/12 18:02:11;;;;;;;;;;;25.20;73.50;;;;;;6084093;28;20675;-43
2022/09/12 18:03:40;;;;;;;;;;;25.30;73.20;;;;;;6082300;28;19940;-41
2022/09/12 18:06:47;;;;;;;;;;;25.70;73.60;;;;;;6083354;28;20049;-40
2022/09/12 18:09:49;;;;;;;;;;;25.30;73.40;;;;;;6087388;28;20485;-39
2022/09/12 18:12:51;;;;;;;;;;;25.20;73.40;;;;;;6086997;28;19930;-41
2022/09/12 18:15:52;;;;;;;;;;;25.10;73.40;;;;;;6099394;28;19941;-39
2022/09/12 18:18:53;;;;;;;;;;;25.30;73.60;;;;;;6101069;28;20641;-40
2022/09/12 18:21:55;;;;;;;;;;;25.10;73.80;;;;;;6098133;28;20052;-40
2022/09/12 18:25:00;;;;;;;;;;;25.10;73.50;;;;;;6098807;28;19941;-40
2022/09/12 18:28:02;;;;;;;;;;;25.10;73.90;;;;;;6096314;28;19940;-41
2022/09/12 18:31:10;;;;;;;;;;;25.40;73.90;;;;;;6098589;28;19938;-40
2022/09/12 18:34:12;;;;;;;;;;;24.90;73.60;;;;;;6095746;28;20895;-40